sensor_id;sensor_type;location;lat;lon;timestamp;temperature;humidity
35613;DHT22;22054;51.646;7.078;2022-10-16T00:01:27;14.00;99.90
35613;DHT22;22054;51.646;7.078;2022-10-16T00:03:55;13.90;99.90
35613;DHT22;22054;51.646;7.078;2022-10-16T00:06:22;13.90;99.90
35613;DHT22;22054;51.646;7.078;2022-10-16T00:08:49;13.90;99.90
35613;DHT22;22054;51.646;7.078;2022-10-16T00:11:21;13.90;99.90
35613;DHT22;22054;51.646;7.078;2022-10-16T00:13:54;13.90;99.90
35613;DHT22;22054;51.646;7.078;2022-10-16T00:16:22;13.70;99.90
35613;DHT22;22054;51.646;7.078;2022-10-16T00:18:48;13.90;99.90
35613;DHT22;22054;51.646;7.078;2022-10-16T00:21:17;14.00;99.90
35613;DHT22;22054;51.646;7.078;2022-10-16T00:23:50;14.00;99.90
35613;DHT22;22054;51.646;7.078;2022-10-16T00:26:18;14.10;99.90
35613;DHT22;22054;51.646;7.078;2022-10-16T00:28:49;14.00;99.90
35613;DHT22;22054;51.646;7.078;2022-10-16T00:31:17;14.00;99.90
35613;DHT22;22054;51.646;7.078;2022-10-16T00:33:44;14.00;99.90
35613;DHT22;22054;51.646;7.078;2022-10-16T00:36:13;14.00;99.90
35613;DHT22;22054;51.646;7.078;2022-10-16T00:38:40;14.10;99.90
35613;DHT22;22054;51.646;7.078;2022-10-16T00:41:09;14.20;99.90
35613;DHT22;22054;51.646;7.078;2022-10-16T00:49:15;13.90;99.90
35613;DHT22;22054;51.646;7.078;2022-10-16T00:51:45;13.90;99.90
35613;DHT22;22054;51.646;7.078;2022-10-16T00:54:17;13.80;99.90
35613;DHT22;22054;51.646;7.078;2022-10-16T00:56:49;13.90;99.90
35613;DHT22;22054;51.646;7.078;2022-10-16T00:59:34;13.80;99.90
35613;DHT22;22054;51.646;7.078;2022-10-16T01:02:02;14.00;99.90
35613;DHT22;22054;51.646;7.078;2022-10-16T01:04:37;13.90;99.90
35613;DHT22;22054;51.646;7.078;2022-10-16T01:07:07;13.80;99.90
35613;DHT22;22054;51.646;7.078;2022-10-16T01:13:27;13.90;99.90
35613;DHT22;22054;51.646;7.078;2022-10-16T01:20:49;14.20;99.90
35613;DHT22;22054;51.646;7.078;2022-10-16T01:23:27;14.00;99.90
35613;DHT22;22054;51.646;7.078;2022-10-16T01:26:20;14.00;99.90
35613;DHT22;22054;51.646;7.078;2022-10-16T01:31:24;14.10;99.90
35613;DHT22;22054;51.646;7.078;2022-10-16T01:34:05;14.00;99.90
35613;DHT22;22054;51.646;7.078;2022-10-16T01:36:42;14.00;99.90
35613;DHT22;22054;51.646;7.078;2022-10-16T01:39:42;13.90;99.90
35613;DHT22;22054;51.646;7.078;2022-10-16T01:42:19;13.80;99.90
35613;DHT22;22054;51.646;7.078;2022-10-16T01:44:48;13.80;99.90
35613;DHT22;22054;51.646;7.078;2022-10-16T01:47:17;13.70;99.90
35613;DHT22;22054;51.646;7.078;2022-10-16T01:49:44;13.80;99.90
35613;DHT22;22054;51.646;7.078;2022-10-16T01:52:15;13.70;99.90
35613;DHT22;22054;51.646;7.078;2022-10-16T01:54:47;13.80;99.90
35613;DHT22;22054;51.646;7.078;2022-10-16T01:57:16;13.80;99.90
35613;DHT22;22054;51.646;7.078;2022-10-16T01:59:45;14.00;99.90
35613;DHT22;22054;51.646;7.078;2022-10-16T02:02:15;13.70;99.90
35613;DHT22;22054;51.646;7.078;2022-10-16T02:04:49;13.80;99.90
35613;DHT22;22054;51.646;7.078;2022-10-16T02:07:19;13.80;99.90
35613;DHT22;22054;51.646;7.078;2022-10-16T02:09:44;13.70;99.90
35613;DHT22;22054;51.646;7.078;2022-10-16T02:12:25;13.70;99.90
35613;DHT22;22054;51.646;7.078;2022-10-16T02:14:54;13.90;99.90
35613;DHT22;22054;51.646;7.078;2022-10-16T02:17:20;13.70;99.90
35613;DHT22;22054;51.646;7.078;2022-10-16T02:19:48;13.70;99.90
35613;DHT22;22054;51.646;7.078;2022-10-16T02:22:24;13.70;99.90
35613;DHT22;22054;51.646;7.078;2022-10-16T02:32:46;13.80;99.90
35613;DHT22;22054;51.646;7.078;2022-10-16T02:35:15;13.80;99.90
35613;DHT22;22054;51.646;7.078;2022-10-16T02:37:43;13.90;99.90
35613;DHT22;22054;51.646;7.078;2022-10-16T02:40:10;14.00;99.90
35613;DHT22;22054;51.646;7.078;2022-10-16T02:42:38;13.80;99.90
35613;DHT22;22054;51.646;7.078;2022-10-16T02:45:10;13.80;99.90
35613;DHT22;22054;51.646;7.078;2022-10-16T02:47:37;13.80;99.90
35613;DHT22;22054;51.646;7.078;2022-10-16T02:50:03;13.80;99.90
35613;DHT22;22054;51.646;7.078;2022-10-16T02:52:37;13.80;99.90
35613;DHT22;22054;51.646;7.078;2022-10-16T02:55:03;13.70;99.90
35613;DHT22;22054;51.646;7.078;2022-10-16T02:57:30;13.80;99.90
35613;DHT22;22054;51.646;7.078;2022-10-16T02:59:56;13.90;99.90
35613;DHT22;22054;51.646;7.078;2022-10-16T03:02:22;13.70;99.90
35613;DHT22;22054;51.646;7.078;2022-10-16T03:04:47;13.80;99.90
35613;DHT22;22054;51.646;7.078;2022-10-16T03:07:13;13.80;99.90
35613;DHT22;22054;51.646;7.078;2022-10-16T03:09:39;13.60;99.90
35613;DHT22;22054;51.646;7.078;2022-10-16T03:12:05;13.70;99.90
35613;DHT22;22054;51.646;7.078;2022-10-16T03:14:30;13.80;99.90
35613;DHT22;22054;51.646;7.078;2022-10-16T03:16:56;14.00;99.90
35613;DHT22;22054;51.646;7.078;2022-10-16T03:19:22;13.80;99.90
35613;DHT22;22054;51.646;7.078;2022-10-16T03:21:48;13.90;99.90
35613;DHT22;22054;51.646;7.078;2022-10-16T03:24:13;13.80;99.90
35613;DHT22;22054;51.646;7.078;2022-10-16T03:26:39;13.90;99.90
35613;DHT22;22054;51.646;7.078;2022-10-16T03:29:05;13.90;99.90
35613;DHT22;22054;51.646;7.078;2022-10-16T03:31:32;13.90;99.90
35613;DHT22;22054;51.646;7.078;2022-10-16T03:33:58;13.80;99.90
35613;DHT22;22054;51.646;7.078;2022-10-16T03:36:23;14.00;99.90
35613;DHT22;22054;51.646;7.078;2022-10-16T03:38:50;14.00;99.90
35613;DHT22;22054;51.646;7.078;2022-10-16T03:41:16;14.10;99.90
35613;DHT22;22054;51.646;7.078;2022-10-16T03:43:42;14.20;99.90
35613;DHT22;22054;51.646;7.078;2022-10-16T03:46:08;14.00;99.90
35613;DHT22;22054;51.646;7.078;2022-10-16T03:48:34;14.00;99.90
35613;DHT22;22054;51.646;7.078;2022-10-16T03:51:00;13.90;99.90
35613;DHT22;22054;51.646;7.078;2022-10-16T03:53:26;13.90;99.90
35613;DHT22;22054;51.646;7.078;2022-10-16T03:55:53;14.00;99.90
35613;DHT22;22054;51.646;7.078;2022-10-16T03:58:18;13.90;99.90
35613;DHT22;22054;51.646;7.078;2022-10-16T04:00:46;13.80;99.90
35613;DHT22;22054;51.646;7.078;2022-10-16T04:03:13;13.80;99.90
35613;DHT22;22054;51.646;7.078;2022-10-16T04:05:39;13.90;99.90
35613;DHT22;22054;51.646;7.078;2022-10-16T04:08:05;14.00;99.90
35613;DHT22;22054;51.646;7.078;2022-10-16T04:10:31;14.00;99.90
35613;DHT22;22054;51.646;7.078;2022-10-16T04:12:56;13.90;99.90
35613;DHT22;22054;51.646;7.078;2022-10-16T04:15:23;14.00;99.90
35613;DHT22;22054;51.646;7.078;2022-10-16T04:17:50;14.00;99.90
35613;DHT22;22054;51.646;7.078;2022-10-16T04:20:17;14.00;99.90
35613;DHT22;22054;51.646;7.078;2022-10-16T04:22:43;14.00;99.90
35613;DHT22;22054;51.646;7.078;2022-10-16T04:25:10;14.10;99.90
35613;DHT22;22054;51.646;7.078;2022-10-16T04:27:37;13.90;99.90
35613;DHT22;22054;51.646;7.078;2022-10-16T04:30:07;14.10;99.90
35613;DHT22;22054;51.646;7.078;2022-10-16T04:32:33;14.00;99.90
35613;DHT22;22054;51.646;7.078;2022-10-16T04:34:59;14.00;99.90
35613;DHT22;22054;51.646;7.078;2022-10-16T04:37:32;13.90;99.90
35613;DHT22;22054;51.646;7.078;2022-10-16T04:39:58;14.00;99.90
35613;DHT22;22054;51.646;7.078;2022-10-16T04:42:23;14.00;99.90
35613;DHT22;22054;51.646;7.078;2022-10-16T04:44:49;14.10;99.90
35613;DHT22;22054;51.646;7.078;2022-10-16T04:47:15;14.00;99.90
35613;DHT22;22054;51.646;7.078;2022-10-16T04:49:41;14.20;99.90
35613;DHT22;22054;51.646;7.078;2022-10-16T04:52:09;14.00;99.90
35613;DHT22;22054;51.646;7.078;2022-10-16T04:54:41;14.00;99.90
35613;DHT22;22054;51.646;7.078;2022-10-16T04:57:08;14.00;99.90
35613;DHT22;22054;51.646;7.078;2022-10-16T04:59:33;14.00;99.90
35613;DHT22;22054;51.646;7.078;2022-10-16T05:01:59;14.00;99.90
35613;DHT22;22054;51.646;7.078;2022-10-16T05:04:25;14.00;99.90
35613;DHT22;22054;51.646;7.078;2022-10-16T05:06:50;14.00;99.90
35613;DHT22;22054;51.646;7.078;2022-10-16T05:09:16;14.00;99.90
35613;DHT22;22054;51.646;7.078;2022-10-16T05:11:42;14.00;99.90
35613;DHT22;22054;51.646;7.078;2022-10-16T05:14:08;14.00;99.90
35613;DHT22;22054;51.646;7.078;2022-10-16T05:16:33;14.00;99.90
35613;DHT22;22054;51.646;7.078;2022-10-16T05:18:59;14.10;99.90
35613;DHT22;22054;51.646;7.078;2022-10-16T05:21:25;14.00;99.90
35613;DHT22;22054;51.646;7.078;2022-10-16T05:23:53;14.00;99.90
35613;DHT22;22054;51.646;7.078;2022-10-16T05:26:19;14.00;99.90
35613;DHT22;22054;51.646;7.078;2022-10-16T05:28:46;14.20;99.90
35613;DHT22;22054;51.646;7.078;2022-10-16T05:31:13;14.00;99.90
35613;DHT22;22054;51.646;7.078;2022-10-16T05:33:40;14.00;99.90
35613;DHT22;22054;51.646;7.078;2022-10-16T05:36:07;14.10;99.90
35613;DHT22;22054;51.646;7.078;2022-10-16T05:38:35;14.00;99.90
35613;DHT22;22054;51.646;7.078;2022-10-16T05:41:01;14.00;99.90
35613;DHT22;22054;51.646;7.078;2022-10-16T05:43:39;14.00;99.90
35613;DHT22;22054;51.646;7.078;2022-10-16T05:46:05;14.00;99.90
35613;DHT22;22054;51.646;7.078;2022-10-16T05:48:32;14.20;99.90
35613;DHT22;22054;51.646;7.078;2022-10-16T05:50:58;14.00;99.90
35613;DHT22;22054;51.646;7.078;2022-10-16T05:53:49;13.90;99.90
35613;DHT22;22054;51.646;7.078;2022-10-16T05:56:15;14.00;99.90
35613;DHT22;22054;51.646;7.078;2022-10-16T05:58:41;14.00;99.90
35613;DHT22;22054;51.646;7.078;2022-10-16T06:01:13;14.20;99.90
35613;DHT22;22054;51.646;7.078;2022-10-16T06:03:40;14.00;99.90
35613;DHT22;22054;51.646;7.078;2022-10-16T06:06:17;14.10;99.90
35613;DHT22;22054;51.646;7.078;2022-10-16T06:08:46;13.90;99.90
35613;DHT22;22054;51.646;7.078;2022-10-16T06:11:18;13.90;99.90
35613;DHT22;22054;51.646;7.078;2022-10-16T06:13:49;13.90;99.90
35613;DHT22;22054;51.646;7.078;2022-10-16T06:16:16;13.90;99.90
35613;DHT22;22054;51.646;7.078;2022-10-16T06:18:42;14.10;99.90
35613;DHT22;22054;51.646;7.078;2022-10-16T06:21:22;13.80;99.90
35613;DHT22;22054;51.646;7.078;2022-10-16T06:23:54;13.90;99.90
35613;DHT22;22054;51.646;7.078;2022-10-16T06:26:22;13.90;99.90
35613;DHT22;22054;51.646;7.078;2022-10-16T06:28:58;13.90;99.90
35613;DHT22;22054;51.646;7.078;2022-10-16T06:31:25;13.90;99.90
35613;DHT22;22054;51.646;7.078;2022-10-16T06:33:53;13.90;99.90
35613;DHT22;22054;51.646;7.078;2022-10-16T06:36:20;13.90;99.90
35613;DHT22;22054;51.646;7.078;2022-10-16T06:38:46;14.10;99.90
35613;DHT22;22054;51.646;7.078;2022-10-16T06:41:25;14.00;99.90
35613;DHT22;22054;51.646;7.078;2022-10-16T06:43:53;14.00;99.90
35613;DHT22;22054;51.646;7.078;2022-10-16T06:46:21;14.00;99.90
35613;DHT22;22054;51.646;7.078;2022-10-16T06:48:48;14.10;99.90
35613;DHT22;22054;51.646;7.078;2022-10-16T06:51:19;14.10;99.90
35613;DHT22;22054;51.646;7.078;2022-10-16T06:53:48;14.30;99.90
35613;DHT22;22054;51.646;7.078;2022-10-16T06:56:23;14.10;99.90
35613;DHT22;22054;51.646;7.078;2022-10-16T06:58:51;14.10;99.90
35613;DHT22;22054;51.646;7.078;2022-10-16T07:01:43;14.20;99.90
35613;DHT22;22054;51.646;7.078;2022-10-16T07:04:29;14.00;99.90
35613;DHT22;22054;51.646;7.078;2022-10-16T07:06:55;14.00;99.90
35613;DHT22;22054;51.646;7.078;2022-10-16T07:09:21;14.00;99.90
35613;DHT22;22054;51.646;7.078;2022-10-16T07:11:46;14.20;99.90
35613;DHT22;22054;51.646;7.078;2022-10-16T07:14:18;14.20;99.90
35613;DHT22;22054;51.646;7.078;2022-10-16T07:16:48;13.90;99.90
35613;DHT22;22054;51.646;7.078;2022-10-16T07:19:14;14.10;99.90
35613;DHT22;22054;51.646;7.078;2022-10-16T07:21:43;14.10;99.90
35613;DHT22;22054;51.646;7.078;2022-10-16T07:24:14;14.10;99.90
35613;DHT22;22054;51.646;7.078;2022-10-16T07:26:42;14.20;99.90
35613;DHT22;22054;51.646;7.078;2022-10-16T07:29:14;14.00;99.90
35613;DHT22;22054;51.646;7.078;2022-10-16T07:31:43;14.20;99.90
35613;DHT22;22054;51.646;7.078;2022-10-16T07:34:11;14.60;99.90
35613;DHT22;22054;51.646;7.078;2022-10-16T07:36:37;14.70;99.90
35613;DHT22;22054;51.646;7.078;2022-10-16T07:39:03;14.70;99.90
35613;DHT22;22054;51.646;7.078;2022-10-16T07:41:29;14.80;99.90
35613;DHT22;22054;51.646;7.078;2022-10-16T07:43:57;14.90;99.90
35613;DHT22;22054;51.646;7.078;2022-10-16T07:46:25;15.00;99.90
35613;DHT22;22054;51.646;7.078;2022-10-16T07:48:52;15.30;99.90
35613;DHT22;22054;51.646;7.078;2022-10-16T07:51:20;15.00;99.90
35613;DHT22;22054;51.646;7.078;2022-10-16T07:53:50;15.30;99.90
35613;DHT22;22054;51.646;7.078;2022-10-16T07:56:20;15.20;99.90
35613;DHT22;22054;51.646;7.078;2022-10-16T07:58:50;15.30;99.90
35613;DHT22;22054;51.646;7.078;2022-10-16T08:01:17;15.30;99.90
35613;DHT22;22054;51.646;7.078;2022-10-16T08:03:48;15.50;99.90
35613;DHT22;22054;51.646;7.078;2022-10-16T08:06:19;15.40;99.90
35613;DHT22;22054;51.646;7.078;2022-10-16T08:08:50;15.40;99.90
35613;DHT22;22054;51.646;7.078;2022-10-16T08:11:17;15.60;99.90
35613;DHT22;22054;51.646;7.078;2022-10-16T08:13:43;15.70;99.90
35613;DHT22;22054;51.646;7.078;2022-10-16T08:16:09;15.80;99.90
35613;DHT22;22054;51.646;7.078;2022-10-16T08:18:36;15.90;99.90
35613;DHT22;22054;51.646;7.078;2022-10-16T08:21:04;16.00;99.90
35613;DHT22;22054;51.646;7.078;2022-10-16T08:23:38;15.90;93.90
35613;DHT22;22054;51.646;7.078;2022-10-16T08:26:09;16.00;96.30
35613;DHT22;22054;51.646;7.078;2022-10-16T08:28:35;16.10;94.30
35613;DHT22;22054;51.646;7.078;2022-10-16T08:31:20;16.20;77.60
35613;DHT22;22054;51.646;7.078;2022-10-16T08:33:47;16.40;77.00
35613;DHT22;22054;51.646;7.078;2022-10-16T08:36:13;16.10;70.20
35613;DHT22;22054;51.646;7.078;2022-10-16T08:38:42;16.30;71.10
35613;DHT22;22054;51.646;7.078;2022-10-16T08:41:20;16.30;55.30
35613;DHT22;22054;51.646;7.078;2022-10-16T08:50:09;16.20;64.70
35613;DHT22;22054;51.646;7.078;2022-10-16T08:52:42;16.20;69.40
35613;DHT22;22054;51.646;7.078;2022-10-16T08:57:58;16.20;74.10
35613;DHT22;22054;51.646;7.078;2022-10-16T09:00:24;16.20;62.90
35613;DHT22;22054;51.646;7.078;2022-10-16T09:06:26;16.30;68.30
35613;DHT22;22054;51.646;7.078;2022-10-16T09:22:48;16.80;45.30
35613;DHT22;22054;51.646;7.078;2022-10-16T09:25:17;17.60;25.70
35613;DHT22;22054;51.646;7.078;2022-10-16T09:27:46;17.80;4.00
35613;DHT22;22054;51.646;7.078;2022-10-16T09:30:18;17.90;1.00
35613;DHT22;22054;51.646;7.078;2022-10-16T09:32:47;17.90;1.00
35613;DHT22;22054;51.646;7.078;2022-10-16T09:35:24;18.00;1.00
35613;DHT22;22054;51.646;7.078;2022-10-16T09:37:55;18.40;1.00
35613;DHT22;22054;51.646;7.078;2022-10-16T09:40:31;18.80;1.00
35613;DHT22;22054;51.646;7.078;2022-10-16T09:46:21;18.00;1.00
35613;DHT22;22054;51.646;7.078;2022-10-16T09:48:55;18.70;1.00
35613;DHT22;22054;51.646;7.078;2022-10-16T09:55:19;19.40;99.90
35613;DHT22;22054;51.646;7.078;2022-10-16T09:57:52;20.00;1.00
35613;DHT22;22054;51.646;7.078;2022-10-16T10:00:19;19.70;99.90
35613;DHT22;22054;51.646;7.078;2022-10-16T10:02:46;19.20;1.00
35613;DHT22;22054;51.646;7.078;2022-10-16T10:05:27;19.30;99.90
35613;DHT22;22054;51.646;7.078;2022-10-16T10:08:00;19.70;1.00
35613;DHT22;22054;51.646;7.078;2022-10-16T10:10:42;19.60;99.90
35613;DHT22;22054;51.646;7.078;2022-10-16T10:13:22;19.20;99.90
35613;DHT22;22054;51.646;7.078;2022-10-16T10:15:50;19.70;99.90
35613;DHT22;22054;51.646;7.078;2022-10-16T10:18:21;19.60;99.90
35613;DHT22;22054;51.646;7.078;2022-10-16T10:21:00;19.10;1.00
35613;DHT22;22054;51.646;7.078;2022-10-16T10:23:28;19.40;1.60
35613;DHT22;22054;51.646;7.078;2022-10-16T10:26:18;19.10;1.00
35613;DHT22;22054;51.646;7.078;2022-10-16T10:29:06;20.00;1.00
35613;DHT22;22054;51.646;7.078;2022-10-16T10:41:15;24.00;1.00
35613;DHT22;22054;51.646;7.078;2022-10-16T10:44:11;24.20;1.00
35613;DHT22;22054;51.646;7.078;2022-10-16T10:47:01;25.10;99.90
35613;DHT22;22054;51.646;7.078;2022-10-16T10:49:43;25.10;99.90
35613;DHT22;22054;51.646;7.078;2022-10-16T10:55:46;24.30;99.90
35613;DHT22;22054;51.646;7.078;2022-10-16T10:58:29;24.20;99.90
35613;DHT22;22054;51.646;7.078;2022-10-16T11:01:07;24.50;99.90
35613;DHT22;22054;51.646;7.078;2022-10-16T11:06:48;25.30;99.90
35613;DHT22;22054;51.646;7.078;2022-10-16T11:09:38;25.90;99.90
35613;DHT22;22054;51.646;7.078;2022-10-16T11:12:20;26.20;76.40
35613;DHT22;22054;51.646;7.078;2022-10-16T11:15:14;26.30;13.50
35613;DHT22;22054;51.646;7.078;2022-10-16T11:20:41;25.20;99.90
35613;DHT22;22054;51.646;7.078;2022-10-16T11:23:24;25.70;63.50
35613;DHT22;22054;51.646;7.078;2022-10-16T11:25:59;25.90;65.50
35613;DHT22;22054;51.646;7.078;2022-10-16T11:28:34;26.90;1.00
35613;DHT22;22054;51.646;7.078;2022-10-16T11:31:36;27.20;1.00
35613;DHT22;22054;51.646;7.078;2022-10-16T11:34:31;26.00;34.40
35613;DHT22;22054;51.646;7.078;2022-10-16T11:37:21;25.60;59.80
35613;DHT22;22054;51.646;7.078;2022-10-16T11:40:31;25.80;52.00
35613;DHT22;22054;51.646;7.078;2022-10-16T11:43:28;26.10;32.90
35613;DHT22;22054;51.646;7.078;2022-10-16T11:46:10;26.90;1.00
35613;DHT22;22054;51.646;7.078;2022-10-16T11:52:38;27.10;1.00
35613;DHT22;22054;51.646;7.078;2022-10-16T11:55:42;25.70;1.00
35613;DHT22;22054;51.646;7.078;2022-10-16T12:03:59;29.10;1.00
35613;DHT22;22054;51.646;7.078;2022-10-16T12:06:55;30.80;1.00
35613;DHT22;22054;51.646;7.078;2022-10-16T12:09:29;31.10;1.00
35613;DHT22;22054;51.646;7.078;2022-10-16T12:11:56;31.10;1.00
35613;DHT22;22054;51.646;7.078;2022-10-16T12:14:46;32.30;1.00
35613;DHT22;22054;51.646;7.078;2022-10-16T12:17:34;31.90;1.00
35613;DHT22;22054;51.646;7.078;2022-10-16T12:20:19;31.00;1.00
35613;DHT22;22054;51.646;7.078;2022-10-16T12:23:07;30.50;1.00
35613;DHT22;22054;51.646;7.078;2022-10-16T12:25:56;28.60;1.00
35613;DHT22;22054;51.646;7.078;2022-10-16T12:28:27;27.80;1.00
35613;DHT22;22054;51.646;7.078;2022-10-16T12:33:28;26.10;1.00
35613;DHT22;22054;51.646;7.078;2022-10-16T12:35:58;26.80;1.00
35613;DHT22;22054;51.646;7.078;2022-10-16T12:38:46;27.30;1.00
35613;DHT22;22054;51.646;7.078;2022-10-16T12:41:35;28.40;1.00
35613;DHT22;22054;51.646;7.078;2022-10-16T12:44:05;27.70;1.00
35613;DHT22;22054;51.646;7.078;2022-10-16T12:46:46;26.10;1.00
35613;DHT22;22054;51.646;7.078;2022-10-16T12:51:37;26.70;1.00
35613;DHT22;22054;51.646;7.078;2022-10-16T12:54:17;28.10;1.00
35613;DHT22;22054;51.646;7.078;2022-10-16T12:57:01;29.20;1.00
35613;DHT22;22054;51.646;7.078;2022-10-16T13:00:00;28.70;1.00
35613;DHT22;22054;51.646;7.078;2022-10-16T13:11:33;31.70;1.00
35613;DHT22;22054;51.646;7.078;2022-10-16T13:14:41;32.20;1.00
35613;DHT22;22054;51.646;7.078;2022-10-16T13:21:03;32.70;1.00
35613;DHT22;22054;51.646;7.078;2022-10-16T13:24:19;32.50;1.00
35613;DHT22;22054;51.646;7.078;2022-10-16T13:27:33;32.60;1.00
35613;DHT22;22054;51.646;7.078;2022-10-16T13:30:19;32.00;1.00
35613;DHT22;22054;51.646;7.078;2022-10-16T13:32:49;30.80;1.00
35613;DHT22;22054;51.646;7.078;2022-10-16T13:35:26;30.50;1.00
35613;DHT22;22054;51.646;7.078;2022-10-16T13:38:15;30.70;1.00
35613;DHT22;22054;51.646;7.078;2022-10-16T13:40:57;30.40;1.00
35613;DHT22;22054;51.646;7.078;2022-10-16T13:43:32;29.40;1.00
35613;DHT22;22054;51.646;7.078;2022-10-16T13:46:04;27.80;1.00
35613;DHT22;22054;51.646;7.078;2022-10-16T13:48:33;26.30;1.00
35613;DHT22;22054;51.646;7.078;2022-10-16T13:53:39;23.80;36.80
35613;DHT22;22054;51.646;7.078;2022-10-16T13:56:09;22.90;99.90
35613;DHT22;22054;51.646;7.078;2022-10-16T13:58:37;22.30;1.00
35613;DHT22;22054;51.646;7.078;2022-10-16T14:01:25;22.10;1.00
35613;DHT22;22054;51.646;7.078;2022-10-16T14:04:08;22.00;1.00
35613;DHT22;22054;51.646;7.078;2022-10-16T14:10:30;22.90;1.00
35613;DHT22;22054;51.646;7.078;2022-10-16T14:16:25;24.00;99.90
35613;DHT22;22054;51.646;7.078;2022-10-16T14:19:02;26.80;1.00
35613;DHT22;22054;51.646;7.078;2022-10-16T14:21:30;27.30;1.00
35613;DHT22;22054;51.646;7.078;2022-10-16T14:23:57;27.60;1.00
35613;DHT22;22054;51.646;7.078;2022-10-16T14:26:27;27.30;1.00
35613;DHT22;22054;51.646;7.078;2022-10-16T14:29:13;26.20;1.00
35613;DHT22;22054;51.646;7.078;2022-10-16T14:31:41;24.70;1.00
35613;DHT22;22054;51.646;7.078;2022-10-16T14:34:25;23.70;99.90
35613;DHT22;22054;51.646;7.078;2022-10-16T14:39:50;22.00;1.00
35613;DHT22;22054;51.646;7.078;2022-10-16T14:42:18;21.70;99.90
35613;DHT22;22054;51.646;7.078;2022-10-16T14:44:46;21.30;1.00
35613;DHT22;22054;51.646;7.078;2022-10-16T14:47:21;21.20;99.90
35613;DHT22;22054;51.646;7.078;2022-10-16T14:49:51;21.20;99.90
35613;DHT22;22054;51.646;7.078;2022-10-16T14:52:18;21.50;99.90
35613;DHT22;22054;51.646;7.078;2022-10-16T14:54:43;21.70;1.00
35613;DHT22;22054;51.646;7.078;2022-10-16T14:57:19;21.80;1.00
35613;DHT22;22054;51.646;7.078;2022-10-16T14:59:46;21.70;1.00
35613;DHT22;22054;51.646;7.078;2022-10-16T15:02:26;21.20;1.00
35613;DHT22;22054;51.646;7.078;2022-10-16T15:05:14;21.00;1.00
35613;DHT22;22054;51.646;7.078;2022-10-16T15:07:40;20.80;1.00
35613;DHT22;22054;51.646;7.078;2022-10-16T15:10:07;20.50;1.00
35613;DHT22;22054;51.646;7.078;2022-10-16T15:12:33;20.30;48.20
35613;DHT22;22054;51.646;7.078;2022-10-16T15:14:59;20.20;1.00
35613;DHT22;22054;51.646;7.078;2022-10-16T15:17:24;20.10;99.90
35613;DHT22;22054;51.646;7.078;2022-10-16T15:19:50;20.10;53.20
35613;DHT22;22054;51.646;7.078;2022-10-16T15:22:16;19.90;99.90
35613;DHT22;22054;51.646;7.078;2022-10-16T15:24:42;19.80;1.00
35613;DHT22;22054;51.646;7.078;2022-10-16T15:27:08;19.60;1.00
35613;DHT22;22054;51.646;7.078;2022-10-16T15:29:34;19.50;1.00
35613;DHT22;22054;51.646;7.078;2022-10-16T15:32:00;19.40;1.00
35613;DHT22;22054;51.646;7.078;2022-10-16T15:34:26;19.30;1.00
35613;DHT22;22054;51.646;7.078;2022-10-16T15:36:51;19.00;1.00
35613;DHT22;22054;51.646;7.078;2022-10-16T15:39:19;19.00;1.00
35613;DHT22;22054;51.646;7.078;2022-10-16T15:41:46;19.00;1.00
35613;DHT22;22054;51.646;7.078;2022-10-16T15:44:20;18.90;1.00
35613;DHT22;22054;51.646;7.078;2022-10-16T15:46:48;19.00;1.00
35613;DHT22;22054;51.646;7.078;2022-10-16T15:49:14;19.20;1.00
35613;DHT22;22054;51.646;7.078;2022-10-16T15:51:42;18.80;1.00
35613;DHT22;22054;51.646;7.078;2022-10-16T15:54:08;18.80;1.00
35613;DHT22;22054;51.646;7.078;2022-10-16T15:56:34;18.70;1.00
35613;DHT22;22054;51.646;7.078;2022-10-16T15:59:02;18.70;1.00
35613;DHT22;22054;51.646;7.078;2022-10-16T16:01:31;18.60;1.00
35613;DHT22;22054;51.646;7.078;2022-10-16T16:04:00;18.50;1.00
35613;DHT22;22054;51.646;7.078;2022-10-16T16:06:26;18.70;1.00
35613;DHT22;22054;51.646;7.078;2022-10-16T16:08:52;18.40;1.00
35613;DHT22;22054;51.646;7.078;2022-10-16T16:11:19;18.20;1.00
35613;DHT22;22054;51.646;7.078;2022-10-16T16:13:45;18.10;1.00
35613;DHT22;22054;51.646;7.078;2022-10-16T16:16:16;17.90;1.00
35613;DHT22;22054;51.646;7.078;2022-10-16T16:18:43;17.70;1.00
35613;DHT22;22054;51.646;7.078;2022-10-16T16:21:10;17.70;1.00
35613;DHT22;22054;51.646;7.078;2022-10-16T16:23:37;17.60;1.00
35613;DHT22;22054;51.646;7.078;2022-10-16T16:26:35;17.50;1.00
35613;DHT22;22054;51.646;7.078;2022-10-16T16:29:04;17.40;1.00
35613;DHT22;22054;51.646;7.078;2022-10-16T16:31:31;17.30;1.00
35613;DHT22;22054;51.646;7.078;2022-10-16T16:33:58;17.10;1.00
35613;DHT22;22054;51.646;7.078;2022-10-16T16:36:25;17.30;1.00
35613;DHT22;22054;51.646;7.078;2022-10-16T16:38:51;17.00;1.00
35613;DHT22;22054;51.646;7.078;2022-10-16T16:41:22;17.00;1.00
35613;DHT22;22054;51.646;7.078;2022-10-16T16:43:50;16.90;1.00
35613;DHT22;22054;51.646;7.078;2022-10-16T16:46:17;16.70;1.00
35613;DHT22;22054;51.646;7.078;2022-10-16T16:48:44;16.70;1.00
35613;DHT22;22054;51.646;7.078;2022-10-16T16:51:14;16.60;1.00
35613;DHT22;22054;51.646;7.078;2022-10-16T16:53:44;16.60;1.00
35613;DHT22;22054;51.646;7.078;2022-10-16T16:56:11;16.50;1.00
35613;DHT22;22054;51.646;7.078;2022-10-16T16:58:37;16.50;3.20
35613;DHT22;22054;51.646;7.078;2022-10-16T17:01:05;16.40;8.50
35613;DHT22;22054;51.646;7.078;2022-10-16T17:03:33;16.40;7.60
35613;DHT22;22054;51.646;7.078;2022-10-16T17:06:09;16.30;1.00
35613;DHT22;22054;51.646;7.078;2022-10-16T17:08:42;16.30;9.60
35613;DHT22;22054;51.646;7.078;2022-10-16T17:11:13;16.20;11.20
35613;DHT22;22054;51.646;7.078;2022-10-16T17:13:48;16.20;11.20
35613;DHT22;22054;51.646;7.078;2022-10-16T17:16:15;16.20;18.40
35613;DHT22;22054;51.646;7.078;2022-10-16T17:18:41;16.10;19.50
35613;DHT22;22054;51.646;7.078;2022-10-16T17:21:08;16.10;12.30
35613;DHT22;22054;51.646;7.078;2022-10-16T17:23:36;16.20;11.50
35613;DHT22;22054;51.646;7.078;2022-10-16T17:26:10;16.30;10.60
35613;DHT22;22054;51.646;7.078;2022-10-16T17:28:40;16.10;9.40
35613;DHT22;22054;51.646;7.078;2022-10-16T17:33:41;16.10;22.70
35613;DHT22;22054;51.646;7.078;2022-10-16T17:36:09;16.10;26.00
35613;DHT22;22054;51.646;7.078;2022-10-16T17:38:36;16.10;30.00
35613;DHT22;22054;51.646;7.078;2022-10-16T17:41:16;16.10;26.90
35613;DHT22;22054;51.646;7.078;2022-10-16T17:43:43;16.00;18.00
35613;DHT22;22054;51.646;7.078;2022-10-16T17:46:10;16.10;7.20
35613;DHT22;22054;51.646;7.078;2022-10-16T17:48:42;16.10;1.30
35613;DHT22;22054;51.646;7.078;2022-10-16T17:51:11;16.10;8.70
35613;DHT22;22054;51.646;7.078;2022-10-16T17:53:42;16.10;11.30
35613;DHT22;22054;51.646;7.078;2022-10-16T17:56:11;16.20;11.90
35613;DHT22;22054;51.646;7.078;2022-10-16T17:58:38;16.10;12.60
35613;DHT22;22054;51.646;7.078;2022-10-16T18:01:15;16.30;10.20
35613;DHT22;22054;51.646;7.078;2022-10-16T18:03:42;16.10;12.90